sensor_id;sensor_type;location;lat;lon;timestamp;pressure;altitude;pressure_sealevel;temperature;humidity
69351;BME280;57106;51.446;-2.606;2022-11-21T03:59:24;100091.95;;;7.12;75.99
69351;BME280;57106;51.446;-2.606;2022-11-21T04:01:50;100081.38;;;7.08;76.46
69351;BME280;57106;51.446;-2.606;2022-11-21T04:04:17;100078.97;;;7.15;76.17
69351;BME280;57106;51.446;-2.606;2022-11-21T04:06:41;100077.23;;;7.23;75.93
69351;BME280;57106;51.446;-2.606;2022-11-21T04:09:12;100061.08;;;7.07;76.46
69351;BME280;57106;51.446;-2.606;2022-11-21T04:11:34;100055.62;;;7.01;76.45
69351;BME280;57106;51.446;-2.606;2022-11-21T04:13:58;100049.46;;;7.04;76.31
69351;BME280;57106;51.446;-2.606;2022-11-21T04:16:27;100038.34;;;7.08;76.05
69351;BME280;57106;51.446;-2.606;2022-11-21T04:18:50;100023.97;;;7.23;76.10
69351;BME280;57106;51.446;-2.606;2022-11-21T04:21:15;100007.28;;;7.29;75.69
69351;BME280;57106;51.446;-2.606;2022-11-21T04:23:42;99993.32;;;7.15;76.18
69351;BME280;57106;51.446;-2.606;2022-11-21T04:26:07;99977.88;;;7.23;76.10
69351;BME280;57106;51.446;-2.606;2022-11-21T04:28:33;99974.33;;;7.15;76.71
69351;BME280;57106;51.446;-2.606;2022-11-21T04:31:02;99964.03;;;7.41;76.15
69351;BME280;57106;51.446;-2.606;2022-11-21T06:27:28;99667.30;;;8.39;75.12
69351;BME280;57106;51.446;-2.606;2022-11-21T07:06:16;99544.09;;;8.84;75.05
69351;BME280;57106;51.446;-2.606;2022-11-21T07:08:42;99537.88;;;8.82;74.92
69351;BME280;57106;51.446;-2.606;2022-11-21T07:11:09;99525.61;;;8.88;75.02
69351;BME280;57106;51.446;-2.606;2022-11-21T07:13:33;99525.02;;;8.65;75.76
69351;BME280;57106;51.446;-2.606;2022-11-21T07:16:01;99520.14;;;8.64;76.08
69351;BME280;57106;51.446;-2.606;2022-11-21T07:18:25;99506.45;;;8.52;76.41
69351;BME280;57106;51.446;-2.606;2022-11-21T07:20:50;99507.18;;;8.23;77.52
69351;BME280;57106;51.446;-2.606;2022-11-21T07:23:15;99497.36;;;8.38;77.79
69351;BME280;57106;51.446;-2.606;2022-11-21T07:25:41;99483.01;;;8.28;78.10
69351;BME280;57106;51.446;-2.606;2022-11-21T07:37:49;99440.08;;;7.86;80.02
69351;BME280;57106;51.446;-2.606;2022-11-21T07:40:14;99417.84;;;7.94;79.86
69351;BME280;57106;51.446;-2.606;2022-11-21T07:42:39;99412.96;;;7.90;80.10
69351;BME280;57106;51.446;-2.606;2022-11-21T07:45:06;99414.22;;;7.95;80.28
69351;BME280;57106;51.446;-2.606;2022-11-21T07:47:31;99406.81;;;7.95;80.35
69351;BME280;57106;51.446;-2.606;2022-11-21T07:49:56;99403.48;;;8.06;80.07
69351;BME280;57106;51.446;-2.606;2022-11-21T07:52:21;99399.88;;;7.95;80.52
69351;BME280;57106;51.446;-2.606;2022-11-21T07:54:47;99395.90;;;8.01;80.61
69351;BME280;57106;51.446;-2.606;2022-11-21T07:57:13;99391.83;;;8.12;80.34
69351;BME280;57106;51.446;-2.606;2022-11-21T07:59:39;99384.19;;;8.25;80.08
69351;BME280;57106;51.446;-2.606;2022-11-21T08:02:04;99375.09;;;8.19;80.67
69351;BME280;57106;51.446;-2.606;2022-11-21T08:04:30;99366.08;;;8.20;81.01
69351;BME280;57106;51.446;-2.606;2022-11-21T08:06:55;99358.62;;;8.22;81.01
69351;BME280;57106;51.446;-2.606;2022-11-21T08:09:21;99355.12;;;8.33;80.79
69351;BME280;57106;51.446;-2.606;2022-11-21T08:11:46;99343.87;;;8.34;80.56
69351;BME280;57106;51.446;-2.606;2022-11-21T08:14:17;99334.78;;;8.35;80.72
69351;BME280;57106;51.446;-2.606;2022-11-21T08:16:38;99325.93;;;8.35;80.58
69351;BME280;57106;51.446;-2.606;2022-11-21T08:19:04;99320.27;;;8.41;80.30
69351;BME280;57106;51.446;-2.606;2022-11-21T08:21:29;99307.02;;;8.47;80.13
69351;BME280;57106;51.446;-2.606;2022-11-21T08:23:55;99310.52;;;8.45;80.42
69351;BME280;57106;51.446;-2.606;2022-11-21T08:26:20;99298.38;;;8.43;80.70
69351;BME280;57106;51.446;-2.606;2022-11-21T08:28:46;99286.94;;;8.55;80.77
69351;BME280;57106;51.446;-2.606;2022-11-21T08:31:11;99275.94;;;8.29;81.37
69351;BME280;57106;51.446;-2.606;2022-11-21T08:33:37;99269.37;;;8.31;81.86
69351;BME280;57106;51.446;-2.606;2022-11-21T08:36:04;99260.29;;;8.31;81.95
69351;BME280;57106;51.446;-2.606;2022-11-21T08:38:29;99252.19;;;8.31;82.20
69351;BME280;57106;51.446;-2.606;2022-11-21T08:40:54;99247.48;;;8.31;82.42
69351;BME280;57106;51.446;-2.606;2022-11-21T08:43:20;99235.95;;;8.27;82.69
69351;BME280;57106;51.446;-2.606;2022-11-21T08:45:45;99233.91;;;8.41;82.82
69351;BME280;57106;51.446;-2.606;2022-11-21T08:48:10;99221.29;;;8.47;82.39
69351;BME280;57106;51.446;-2.606;2022-11-21T08:50:36;99213.54;;;8.57;82.42
69351;BME280;57106;51.446;-2.606;2022-11-21T08:53:02;99212.44;;;8.66;82.09
69351;BME280;57106;51.446;-2.606;2022-11-21T08:55:28;99210.53;;;8.63;82.22
69351;BME280;57106;51.446;-2.606;2022-11-21T09:00:19;99186.90;;;8.80;81.89
69351;BME280;57106;51.446;-2.606;2022-11-21T09:02:44;99174.90;;;8.72;82.32
69351;BME280;57106;51.446;-2.606;2022-11-21T09:05:10;99165.25;;;8.68;82.51
69351;BME280;57106;51.446;-2.606;2022-11-21T09:07:35;99153.59;;;8.81;82.53
69351;BME280;57106;51.446;-2.606;2022-11-21T09:10:01;99146.42;;;8.87;82.09
69351;BME280;57106;51.446;-2.606;2022-11-21T09:12:26;99134.24;;;8.83;82.48
69351;BME280;57106;51.446;-2.606;2022-11-21T09:14:52;99121.91;;;8.81;82.45
69351;BME280;57106;51.446;-2.606;2022-11-21T09:17:18;99108.22;;;8.92;82.34
69351;BME280;57106;51.446;-2.606;2022-11-21T09:19:43;99101.24;;;8.87;82.45
69351;BME280;57106;51.446;-2.606;2022-11-21T09:22:09;99089.45;;;8.83;82.41
69351;BME280;57106;51.446;-2.606;2022-11-21T09:24:34;99079.92;;;8.85;82.33
69351;BME280;57106;51.446;-2.606;2022-11-21T09:27:00;99071.51;;;8.94;82.14
69351;BME280;57106;51.446;-2.606;2022-11-21T09:29:26;99063.96;;;8.98;81.97
69351;BME280;57106;51.446;-2.606;2022-11-21T09:31:51;99051.00;;;8.87;82.36
69351;BME280;57106;51.446;-2.606;2022-11-21T09:34:17;99032.57;;;8.85;82.59
69351;BME280;57106;51.446;-2.606;2022-11-21T09:36:43;99020.83;;;8.85;82.71
69351;BME280;57106;51.446;-2.606;2022-11-21T09:39:08;99008.24;;;8.82;83.20
69351;BME280;57106;51.446;-2.606;2022-11-21T09:41:38;98998.28;;;8.85;82.77
69351;BME280;57106;51.446;-2.606;2022-11-21T09:44:07;98978.15;;;8.87;82.90
69351;BME280;57106;51.446;-2.606;2022-11-21T09:46:29;98973.91;;;8.77;83.20
69351;BME280;57106;51.446;-2.606;2022-11-21T09:48:54;98959.27;;;8.84;83.30
69351;BME280;57106;51.446;-2.606;2022-11-21T09:51:17;98946.90;;;8.76;83.42
69351;BME280;57106;51.446;-2.606;2022-11-21T09:53:50;98941.16;;;8.88;83.41
69351;BME280;57106;51.446;-2.606;2022-11-21T09:56:11;98930.68;;;8.88;83.25
69351;BME280;57106;51.446;-2.606;2022-11-21T09:58:38;98925.65;;;8.90;83.15
69351;BME280;57106;51.446;-2.606;2022-11-21T10:00:58;98919.76;;;9.04;82.68
69351;BME280;57106;51.446;-2.606;2022-11-21T10:03:27;98908.41;;;9.00;82.44
69351;BME280;57106;51.446;-2.606;2022-11-21T10:05:53;98890.32;;;9.06;82.31
69351;BME280;57106;51.446;-2.606;2022-11-21T10:08:19;98872.77;;;9.04;82.35
69351;BME280;57106;51.446;-2.606;2022-11-21T10:10:50;98866.77;;;8.92;82.90
69351;BME280;57106;51.446;-2.606;2022-11-21T10:13:15;98848.70;;;8.96;82.99
69351;BME280;57106;51.446;-2.606;2022-11-21T10:15:42;98837.16;;;9.03;82.56
69351;BME280;57106;51.446;-2.606;2022-11-21T10:25:22;98804.03;;;8.94;82.78
69351;BME280;57106;51.446;-2.606;2022-11-21T10:27:45;98788.02;;;9.02;82.61
69351;BME280;57106;51.446;-2.606;2022-11-21T10:32:36;98778.17;;;8.95;82.72
69351;BME280;57106;51.446;-2.606;2022-11-21T10:35:00;98764.73;;;9.05;82.51
69351;BME280;57106;51.446;-2.606;2022-11-21T10:37:30;98749.69;;;9.06;81.83
69351;BME280;57106;51.446;-2.606;2022-11-21T10:39:49;98736.90;;;9.10;81.77
69351;BME280;57106;51.446;-2.606;2022-11-21T10:42:27;98721.96;;;9.08;81.74
69351;BME280;57106;51.446;-2.606;2022-11-21T10:44:39;98698.27;;;9.12;81.70
69351;BME280;57106;51.446;-2.606;2022-11-21T10:49:33;98674.34;;;9.23;82.01
69351;BME280;57106;51.446;-2.606;2022-11-21T10:52:00;98673.12;;;9.23;81.76
69351;BME280;57106;51.446;-2.606;2022-11-21T10:54:21;98663.51;;;9.34;81.45
69351;BME280;57106;51.446;-2.606;2022-11-21T10:56:47;98653.54;;;9.31;81.53
69351;BME280;57106;51.446;-2.606;2022-11-21T10:59:20;98642.28;;;9.35;81.54
69351;BME280;57106;51.446;-2.606;2022-11-21T11:04:16;98627.57;;;9.44;81.43
69351;BME280;57106;51.446;-2.606;2022-11-21T11:06:29;98615.12;;;9.61;81.27
69351;BME280;57106;51.446;-2.606;2022-11-21T11:08:54;98602.85;;;9.53;81.39
69351;BME280;57106;51.446;-2.606;2022-11-21T11:11:21;98604.19;;;9.62;81.30
69351;BME280;57106;51.446;-2.606;2022-11-21T11:13:56;98595.49;;;9.73;81.01
69351;BME280;57106;51.446;-2.606;2022-11-21T11:16:15;98585.22;;;9.66;80.97
69351;BME280;57106;51.446;-2.606;2022-11-21T11:18:40;98576.14;;;9.75;80.87
69351;BME280;57106;51.446;-2.606;2022-11-21T11:21:11;98569.39;;;9.72;80.97
69351;BME280;57106;51.446;-2.606;2022-11-21T11:25:55;98554.42;;;9.92;80.46
69351;BME280;57106;51.446;-2.606;2022-11-21T11:28:20;98546.37;;;9.97;79.85
69351;BME280;57106;51.446;-2.606;2022-11-21T11:30:46;98533.27;;;10.01;79.92
69351;BME280;57106;51.446;-2.606;2022-11-21T11:35:36;98513.78;;;10.02;80.00
69351;BME280;57106;51.446;-2.606;2022-11-21T11:38:01;98502.63;;;9.72;80.69
69351;BME280;57106;51.446;-2.606;2022-11-21T11:40:31;98496.20;;;9.69;81.02
69351;BME280;57106;51.446;-2.606;2022-11-21T11:52:41;98453.38;;;9.64;81.71
69351;BME280;57106;51.446;-2.606;2022-11-21T11:55:04;98447.05;;;9.69;81.58
69351;BME280;57106;51.446;-2.606;2022-11-21T11:57:26;98441.94;;;9.70;81.54
69351;BME280;57106;51.446;-2.606;2022-11-21T11:59:58;98431.44;;;9.69;81.87
69351;BME280;57106;51.446;-2.606;2022-11-21T12:02:22;98426.71;;;9.64;81.99
69351;BME280;57106;51.446;-2.606;2022-11-21T12:04:45;98418.18;;;9.60;82.20
69351;BME280;57106;51.446;-2.606;2022-11-21T12:07:15;98406.47;;;9.65;82.33
69351;BME280;57106;51.446;-2.606;2022-11-21T12:09:38;98399.79;;;9.70;82.00
69351;BME280;57106;51.446;-2.606;2022-11-21T12:12:04;98393.03;;;9.72;81.87
69351;BME280;57106;51.446;-2.606;2022-11-21T12:14:42;98394.43;;;9.80;81.89
69351;BME280;57106;51.446;-2.606;2022-11-21T12:16:51;98377.77;;;9.81;81.92
69351;BME280;57106;51.446;-2.606;2022-11-21T12:19:16;98373.15;;;9.86;81.77
69351;BME280;57106;51.446;-2.606;2022-11-21T12:21:41;98364.30;;;9.95;81.21
69351;BME280;57106;51.446;-2.606;2022-11-21T12:24:09;98350.36;;;9.93;81.25
69351;BME280;57106;51.446;-2.606;2022-11-21T12:26:45;98346.79;;;9.81;81.53
69351;BME280;57106;51.446;-2.606;2022-11-21T12:31:31;98334.82;;;9.60;82.46
69351;BME280;57106;51.446;-2.606;2022-11-21T12:33:54;98323.85;;;9.57;82.54
69351;BME280;57106;51.446;-2.606;2022-11-21T12:36:27;98333.22;;;9.55;82.61
69351;BME280;57106;51.446;-2.606;2022-11-21T12:38:53;98320.72;;;9.57;82.62
69351;BME280;57106;51.446;-2.606;2022-11-21T12:41:12;98312.50;;;9.58;82.35
69351;BME280;57106;51.446;-2.606;2022-11-21T12:43:38;98308.85;;;9.62;82.08
69351;BME280;57106;51.446;-2.606;2022-11-21T12:46:04;98309.91;;;9.66;82.05
69351;BME280;57106;51.446;-2.606;2022-11-21T12:48:36;98343.46;;;9.78;81.50
69351;BME280;57106;51.446;-2.606;2022-11-21T12:50:53;98384.17;;;9.83;81.24
69351;BME280;57106;51.446;-2.606;2022-11-21T12:53:21;98400.84;;;9.96;79.71
69351;BME280;57106;51.446;-2.606;2022-11-21T12:55:40;98400.46;;;9.68;78.77
69351;BME280;57106;51.446;-2.606;2022-11-21T12:58:20;98378.18;;;9.30;78.89
69351;BME280;57106;51.446;-2.606;2022-11-21T13:00:40;98363.16;;;9.26;79.64
69351;BME280;57106;51.446;-2.606;2022-11-21T13:05:38;98360.03;;;9.17;80.64
69351;BME280;57106;51.446;-2.606;2022-11-21T13:07:48;98352.38;;;9.48;79.85
69351;BME280;57106;51.446;-2.606;2022-11-21T13:17:40;98314.24;;;9.93;79.53
69351;BME280;57106;51.446;-2.606;2022-11-21T13:19:58;98301.11;;;9.94;79.08
69351;BME280;57106;51.446;-2.606;2022-11-21T13:24:57;98291.61;;;10.07;79.33
69351;BME280;57106;51.446;-2.606;2022-11-21T13:27:25;98287.82;;;10.34;78.70
69351;BME280;57106;51.446;-2.606;2022-11-21T13:29:37;98283.56;;;10.48;78.11
69351;BME280;57106;51.446;-2.606;2022-11-21T13:34:35;98273.60;;;10.34;78.23
69351;BME280;57106;51.446;-2.606;2022-11-21T13:36:54;98271.47;;;10.33;78.46
69351;BME280;57106;51.446;-2.606;2022-11-21T13:39:26;98269.20;;;10.44;78.31
69351;BME280;57106;51.446;-2.606;2022-11-21T13:41:59;98263.86;;;10.52;78.54
69351;BME280;57106;51.446;-2.606;2022-11-21T13:49:06;98269.18;;;10.57;78.61
69351;BME280;57106;51.446;-2.606;2022-11-21T13:51:42;98272.13;;;10.31;80.13
69351;BME280;57106;51.446;-2.606;2022-11-21T13:54:07;98268.68;;;10.32;80.09
69351;BME280;57106;51.446;-2.606;2022-11-21T13:56:25;98273.87;;;10.31;80.32
69351;BME280;57106;51.446;-2.606;2022-11-21T13:58:53;98278.60;;;10.21;79.68
69351;BME280;57106;51.446;-2.606;2022-11-21T14:03:49;98301.75;;;10.21;78.81
69351;BME280;57106;51.446;-2.606;2022-11-21T14:06:13;98330.36;;;9.79;78.10
69351;BME280;57106;51.446;-2.606;2022-11-21T14:08:27;98328.92;;;9.29;75.15
69351;BME280;57106;51.446;-2.606;2022-11-21T14:10:54;98340.78;;;8.93;76.00
69351;BME280;57106;51.446;-2.606;2022-11-21T14:13:22;98373.37;;;8.76;75.92
69351;BME280;57106;51.446;-2.606;2022-11-21T14:15:47;98361.08;;;8.70;76.55
69351;BME280;57106;51.446;-2.606;2022-11-21T14:18:18;98372.68;;;8.65;76.42
69351;BME280;57106;51.446;-2.606;2022-11-21T14:23:01;98394.01;;;8.66;76.44
69351;BME280;57106;51.446;-2.606;2022-11-21T14:25:33;98394.71;;;8.69;76.13
69351;BME280;57106;51.446;-2.606;2022-11-21T14:27:53;98400.82;;;8.80;75.00
69351;BME280;57106;51.446;-2.606;2022-11-21T14:30:29;98403.44;;;8.70;74.78
69351;BME280;57106;51.446;-2.606;2022-11-21T14:42:33;98433.94;;;8.79;73.68
69351;BME280;57106;51.446;-2.606;2022-11-21T14:47:17;98441.85;;;8.82;73.41
69351;BME280;57106;51.446;-2.606;2022-11-21T14:49:47;98450.02;;;8.76;72.99
69351;BME280;57106;51.446;-2.606;2022-11-21T14:52:17;98453.25;;;8.75;72.97
69351;BME280;57106;51.446;-2.606;2022-11-21T14:54:39;98464.17;;;8.86;72.97
69351;BME280;57106;51.446;-2.606;2022-11-21T14:56:59;98461.02;;;8.79;72.80
69351;BME280;57106;51.446;-2.606;2022-11-21T14:59:29;98474.83;;;8.93;72.70
69351;BME280;57106;51.446;-2.606;2022-11-21T15:01:57;98479.20;;;8.89;72.64
69351;BME280;57106;51.446;-2.606;2022-11-21T15:04:26;98486.17;;;8.83;72.22
69351;BME280;57106;51.446;-2.606;2022-11-21T15:06:42;98491.04;;;8.81;71.99
69351;BME280;57106;51.446;-2.606;2022-11-21T15:09:10;98492.16;;;8.92;71.94
69351;BME280;57106;51.446;-2.606;2022-11-21T15:11:36;98491.94;;;8.94;71.81
69351;BME280;57106;51.446;-2.606;2022-11-21T15:14:00;98509.11;;;8.78;71.62
69351;BME280;57106;51.446;-2.606;2022-11-21T15:16:23;98509.69;;;8.74;71.94
69351;BME280;57106;51.446;-2.606;2022-11-21T15:18:48;98515.90;;;8.89;71.58
69351;BME280;57106;51.446;-2.606;2022-11-21T15:21:14;98517.88;;;8.86;71.85
69351;BME280;57106;51.446;-2.606;2022-11-21T15:23:39;98513.24;;;8.80;71.54
69351;BME280;57106;51.446;-2.606;2022-11-21T15:28:31;98504.12;;;8.99;71.32
69351;BME280;57106;51.446;-2.606;2022-11-21T15:31:15;98506.63;;;9.00;71.52
69351;BME280;57106;51.446;-2.606;2022-11-21T15:33:22;98508.47;;;8.98;70.76
69351;BME280;57106;51.446;-2.606;2022-11-21T15:35:50;98509.94;;;8.83;70.64
69351;BME280;57106;51.446;-2.606;2022-11-21T15:38:16;98518.32;;;9.00;71.20
69351;BME280;57106;51.446;-2.606;2022-11-21T15:40:39;98518.60;;;8.84;70.97
69351;BME280;57106;51.446;-2.606;2022-11-21T15:43:06;98511.15;;;8.98;70.45
69351;BME280;57106;51.446;-2.606;2022-11-21T15:45:30;98506.70;;;8.89;70.34
69351;BME280;57106;51.446;-2.606;2022-11-21T15:47:56;98507.75;;;8.82;70.32
69351;BME280;57106;51.446;-2.606;2022-11-21T15:50:22;98509.22;;;8.93;70.37
69351;BME280;57106;51.446;-2.606;2022-11-21T15:52:48;98509.83;;;8.94;70.21
69351;BME280;57106;51.446;-2.606;2022-11-21T15:55:17;98510.78;;;8.97;70.39
69351;BME280;57106;51.446;-2.606;2022-11-21T15:57:38;98513.96;;;8.95;70.53
69351;BME280;57106;51.446;-2.606;2022-11-21T16:09:46;98513.75;;;8.92;68.42
69351;BME280;57106;51.446;-2.606;2022-11-21T16:12:17;98519.17;;;9.01;68.32
69351;BME280;57106;51.446;-2.606;2022-11-21T16:14:37;98530.57;;;9.03;67.77
69351;BME280;57106;51.446;-2.606;2022-11-21T16:17:02;98535.94;;;8.93;67.66
69351;BME280;57106;51.446;-2.606;2022-11-21T16:19:28;98535.51;;;8.73;67.58
69351;BME280;57106;51.446;-2.606;2022-11-21T16:21:54;98542.82;;;8.72;67.36
69351;BME280;57106;51.446;-2.606;2022-11-21T16:24:19;98537.85;;;8.68;67.43
69351;BME280;57106;51.446;-2.606;2022-11-21T16:26:45;98539.22;;;8.74;67.28
69351;BME280;57106;51.446;-2.606;2022-11-21T16:29:10;98543.18;;;8.68;66.97
69351;BME280;57106;51.446;-2.606;2022-11-21T16:31:36;98543.83;;;8.65;66.81
69351;BME280;57106;51.446;-2.606;2022-11-21T16:34:02;98542.54;;;8.45;67.22
69351;BME280;57106;51.446;-2.606;2022-11-21T16:36:29;98544.95;;;8.39;67.46
69351;BME280;57106;51.446;-2.606;2022-11-21T16:38:54;98551.77;;;8.33;67.51
69351;BME280;57106;51.446;-2.606;2022-11-21T16:41:21;98554.06;;;8.42;67.33
69351;BME280;57106;51.446;-2.606;2022-11-21T16:43:45;98550.15;;;8.27;67.50
69351;BME280;57106;51.446;-2.606;2022-11-21T16:46:10;98551.46;;;8.26;67.42
69351;BME280;57106;51.446;-2.606;2022-11-21T16:48:36;98556.91;;;8.17;67.63
69351;BME280;57106;51.446;-2.606;2022-11-21T16:51:07;98551.90;;;8.22;67.79
69351;BME280;57106;51.446;-2.606;2022-11-21T16:53:29;98557.03;;;8.16;68.29
69351;BME280;57106;51.446;-2.606;2022-11-21T16:55:58;98565.30;;;8.16;68.15
69351;BME280;57106;51.446;-2.606;2022-11-21T16:58:18;98558.70;;;8.09;68.32
69351;BME280;57106;51.446;-2.606;2022-11-21T17:00:44;98560.86;;;8.20;68.32
69351;BME280;57106;51.446;-2.606;2022-11-21T17:03:09;98561.09;;;8.13;68.97
69351;BME280;57106;51.446;-2.606;2022-11-21T17:05:35;98565.99;;;8.11;69.06
69351;BME280;57106;51.446;-2.606;2022-11-21T17:08:00;98565.82;;;8.16;68.21
69351;BME280;57106;51.446;-2.606;2022-11-21T17:10:26;98563.98;;;8.15;68.12
69351;BME280;57106;51.446;-2.606;2022-11-21T18:16:00;98607.61;;;7.77;66.27
69351;BME280;57106;51.446;-2.606;2022-11-21T18:18:24;98615.34;;;7.70;66.40
69351;BME280;57106;51.446;-2.606;2022-11-21T18:20:49;98611.29;;;7.69;66.51
69351;BME280;57106;51.446;-2.606;2022-11-21T18:23:15;98609.25;;;7.74;66.47
69351;BME280;57106;51.446;-2.606;2022-11-21T18:28:06;98615.60;;;7.79;65.95
69351;BME280;57106;51.446;-2.606;2022-11-21T18:30:33;98616.14;;;7.82;65.82
69351;BME280;57106;51.446;-2.606;2022-11-21T18:32:56;98612.96;;;7.76;66.06
69351;BME280;57106;51.446;-2.606;2022-11-21T18:35:22;98615.45;;;7.71;65.70
69351;BME280;57106;51.446;-2.606;2022-11-21T18:40:12;98617.89;;;7.64;65.65
69351;BME280;57106;51.446;-2.606;2022-11-21T18:42:38;98620.69;;;7.71;65.25
69351;BME280;57106;51.446;-2.606;2022-11-21T18:45:03;98619.81;;;7.67;65.75
69351;BME280;57106;51.446;-2.606;2022-11-21T18:47:29;98620.49;;;7.71;65.27
69351;BME280;57106;51.446;-2.606;2022-11-21T18:49:54;98621.23;;;7.71;65.40
69351;BME280;57106;51.446;-2.606;2022-11-21T18:52:19;98627.97;;;7.72;65.49
69351;BME280;57106;51.446;-2.606;2022-11-21T18:54:45;98637.87;;;7.74;65.55
69351;BME280;57106;51.446;-2.606;2022-11-21T19:06:53;98627.56;;;7.82;64.99
69351;BME280;57106;51.446;-2.606;2022-11-21T19:09:24;98631.86;;;7.74;65.23
69351;BME280;57106;51.446;-2.606;2022-11-21T19:11:44;98631.54;;;7.69;65.04
69351;BME280;57106;51.446;-2.606;2022-11-21T19:14:11;98637.90;;;7.62;65.33
69351;BME280;57106;51.446;-2.606;2022-11-21T19:16:46;98638.94;;;7.60;65.69
69351;BME280;57106;51.446;-2.606;2022-11-21T19:19:05;98639.54;;;7.62;65.26
69351;BME280;57106;51.446;-2.606;2022-11-21T19:21:27;98643.77;;;7.61;65.66
69351;BME280;57106;51.446;-2.606;2022-11-21T19:23:53;98645.01;;;7.71;65.49
69351;BME280;57106;51.446;-2.606;2022-11-21T19:26:18;98644.05;;;7.77;65.66
69351;BME280;57106;51.446;-2.606;2022-11-21T19:28:44;98642.38;;;7.66;66.06
69351;BME280;57106;51.446;-2.606;2022-11-21T19:31:10;98649.32;;;7.67;66.21
69351;BME280;57106;51.446;-2.606;2022-11-21T19:36:00;98652.30;;;7.67;65.95
69351;BME280;57106;51.446;-2.606;2022-11-21T19:38:35;98661.55;;;7.57;66.32
69351;BME280;57106;51.446;-2.606;2022-11-21T19:40:50;98666.82;;;7.67;66.27
69351;BME280;57106;51.446;-2.606;2022-11-21T19:43:17;98668.14;;;7.45;66.75
69351;BME280;57106;51.446;-2.606;2022-11-21T19:45:41;98661.11;;;7.69;65.96
69351;BME280;57106;51.446;-2.606;2022-11-21T19:48:11;98672.00;;;7.62;66.08
69351;BME280;57106;51.446;-2.606;2022-11-21T19:50:32;98671.91;;;7.60;66.20
69351;BME280;57106;51.446;-2.606;2022-11-21T19:55:25;98660.36;;;7.71;65.85
69351;BME280;57106;51.446;-2.606;2022-11-21T20:00:15;98663.60;;;7.58;66.24
69351;BME280;57106;51.446;-2.606;2022-11-21T20:02:40;98662.11;;;7.66;66.05
69351;BME280;57106;51.446;-2.606;2022-11-21T20:07:33;98661.34;;;7.75;65.65
69351;BME280;57106;51.446;-2.606;2022-11-21T20:09:57;98652.32;;;7.65;65.55
69351;BME280;57106;51.446;-2.606;2022-11-21T20:12:27;98653.36;;;7.66;65.75
69351;BME280;57106;51.446;-2.606;2022-11-21T20:14:48;98651.54;;;7.51;66.17
69351;BME280;57106;51.446;-2.606;2022-11-21T20:17:13;98651.20;;;7.64;65.92
69351;BME280;57106;51.446;-2.606;2022-11-21T20:19:40;98659.90;;;7.44;66.48
69351;BME280;57106;51.446;-2.606;2022-11-21T20:22:05;98657.19;;;7.44;66.61
69351;BME280;57106;51.446;-2.606;2022-11-21T20:24:34;98660.97;;;7.51;66.35
69351;BME280;57106;51.446;-2.606;2022-11-21T20:26:56;98660.29;;;7.53;66.31
69351;BME280;57106;51.446;-2.606;2022-11-21T20:39:05;98661.42;;;7.45;67.17
69351;BME280;57106;51.446;-2.606;2022-11-21T20:41:31;98659.18;;;7.42;67.03
69351;BME280;57106;51.446;-2.606;2022-11-21T20:43:55;98658.22;;;7.31;67.58
69351;BME280;57106;51.446;-2.606;2022-11-21T20:46:22;98659.71;;;7.36;67.68
69351;BME280;57106;51.446;-2.606;2022-11-21T20:48:46;98654.01;;;7.24;68.25
69351;BME280;57106;51.446;-2.606;2022-11-21T20:51:12;98655.26;;;7.23;68.37
69351;BME280;57106;51.446;-2.606;2022-11-21T20:53:37;98655.78;;;7.26;68.46
69351;BME280;57106;51.446;-2.606;2022-11-21T20:58:29;98657.39;;;7.06;69.01
69351;BME280;57106;51.446;-2.606;2022-11-21T21:00:54;98661.28;;;7.10;69.24
69351;BME280;57106;51.446;-2.606;2022-11-21T21:03:20;98656.72;;;7.08;69.18
69351;BME280;57106;51.446;-2.606;2022-11-21T21:05:46;98662.30;;;7.02;69.50
69351;BME280;57106;51.446;-2.606;2022-11-21T21:08:11;98659.27;;;7.14;69.04
69351;BME280;57106;51.446;-2.606;2022-11-21T21:10:37;98658.28;;;7.08;68.95
69351;BME280;57106;51.446;-2.606;2022-11-21T21:13:13;98662.19;;;7.11;68.94
69351;BME280;57106;51.446;-2.606;2022-11-21T21:15:28;98657.31;;;7.13;69.02
69351;BME280;57106;51.446;-2.606;2022-11-21T21:17:54;98654.10;;;7.03;68.94
69351;BME280;57106;51.446;-2.606;2022-11-21T21:22:45;98652.69;;;6.97;69.20
69351;BME280;57106;51.446;-2.606;2022-11-21T21:27:36;98653.54;;;6.92;69.25
69351;BME280;57106;51.446;-2.606;2022-11-21T21:30:02;98655.65;;;6.90;68.98
69351;BME280;57106;51.446;-2.606;2022-11-21T21:32:28;98657.49;;;7.00;68.67
69351;BME280;57106;51.446;-2.606;2022-11-21T21:34:54;98653.35;;;6.96;68.39
69351;BME280;57106;51.446;-2.606;2022-11-21T21:37:19;98659.77;;;7.06;68.37
69351;BME280;57106;51.446;-2.606;2022-11-21T21:39:49;98661.69;;;7.15;67.93
69351;BME280;57106;51.446;-2.606;2022-11-21T21:42:10;98665.88;;;7.03;68.10
69351;BME280;57106;51.446;-2.606;2022-11-21T21:44:36;98660.19;;;6.90;68.24
69351;BME280;57106;51.446;-2.606;2022-11-21T21:47:02;98662.99;;;6.98;68.28
69351;BME280;57106;51.446;-2.606;2022-11-21T21:49:28;98660.71;;;6.92;68.39
69351;BME280;57106;51.446;-2.606;2022-11-21T21:51:53;98658.74;;;7.05;67.80
69351;BME280;57106;51.446;-2.606;2022-11-21T21:54:19;98655.71;;;6.80;68.59
69351;BME280;57106;51.446;-2.606;2022-11-21T21:59:16;98663.14;;;6.96;68.44
69351;BME280;57106;51.446;-2.606;2022-11-21T22:13:44;98671.66;;;6.84;69.40
69351;BME280;57106;51.446;-2.606;2022-11-21T22:16:10;98674.94;;;6.96;69.14
69351;BME280;57106;51.446;-2.606;2022-11-21T22:18:34;98678.03;;;6.94;69.01
69351;BME280;57106;51.446;-2.606;2022-11-21T22:20:59;98682.79;;;6.72;69.66
69351;BME280;57106;51.446;-2.606;2022-11-21T22:26:00;98686.69;;;6.96;69.59
69351;BME280;57106;51.446;-2.606;2022-11-21T22:28:16;98690.17;;;7.10;68.80
69351;BME280;57106;51.446;-2.606;2022-11-21T22:30:41;98693.49;;;7.06;69.00
69351;BME280;57106;51.446;-2.606;2022-11-21T22:33:07;98694.63;;;7.04;68.98
69351;BME280;57106;51.446;-2.606;2022-11-21T22:50:07;98674.43;;;6.77;70.07
69351;BME280;57106;51.446;-2.606;2022-11-21T22:52:32;98673.59;;;6.84;69.97
69351;BME280;57106;51.446;-2.606;2022-11-21T22:54:58;98675.51;;;6.76;70.24
69351;BME280;57106;51.446;-2.606;2022-11-21T22:57:26;98675.46;;;6.83;70.03
69351;BME280;57106;51.446;-2.606;2022-11-21T22:59:49;98672.13;;;6.81;70.12
69351;BME280;57106;51.446;-2.606;2022-11-21T23:02:15;98668.00;;;6.76;70.13
69351;BME280;57106;51.446;-2.606;2022-11-21T23:04:41;98668.30;;;6.62;70.74
69351;BME280;57106;51.446;-2.606;2022-11-21T23:07:06;98665.90;;;6.75;70.64